Observations for GUERNSEY AIRPORT, United Kingdom (EGJB)

EGJB 191950Z 31002KT 9999 FEW023 11/08 Q1005
EGJB 191920Z 31003KT 9999 FEW023 11/07 Q1005
EGJB 191850Z 31005KT 9999 FEW022 10/07 Q1004
EGJB 191820Z 30004KT 9999 FEW022 11/08 Q1004
EGJB 191750Z 29004KT 9999 FEW020 11/08 Q1004
EGJB 191720Z 27005KT 9999 FEW020 11/08 Q1004
EGJB 191650Z 28005KT 9999 FEW022 12/09 Q1004
EGJB 191620Z 27007KT 9999 FEW022 13/08 Q1003
EGJB 191550Z 27008KT 9999 FEW022 13/09 Q1003
EGJB 191520Z 27009KT 9999 FEW018CB 14/09 Q1003  
EGJB 191450Z 28009KT 9999 FEW018CB 14/10 Q1003  
EGJB 191420Z 27010KT 9999 FEW015CB 14/10 Q1003  
EGJB 191350Z 26012KT 9999 FEW015CB 14/09 Q1003  
EGJB 191320Z 27010KT 9999 VCSH FEW015CB 13/10 Q1003 
EGJB 191250Z 24008KT 9999 VCSH FEW015CB SCT020 14/12 Q1003  
EGJB 191220Z 28010KT 9999 VCSH FEW015CB SCT020 14/10 Q1003  
EGJB 191150Z 26010KT 9999 VCSH FEW015CB 13/10 Q1003 
EGJB 191120Z 25012KT 9999 -SHRA FEW015CB 14/10 Q1003
EGJB 191050Z 25012KT 9999 VCSH FEW015CB 13/10 Q1003 
EGJB 191020Z 25011KT 9999 FEW015CB 13/10 Q1002  
EGJB 190950Z 26012KT 9999 VCSH FEW015CB 12/10 Q1002 RESHRA  
EGJB 190920Z 26008KT 9999 -SHRA FEW015CB 11/09 Q1002 RESHRA 
EGJB 190850Z 25011KT 9999 -SHRA FEW015CB 11/09 Q1002
EGJB 190820Z 25012KT 9999 VCSH FEW015CB 12/09 Q1002 
EGJB 190750Z 23007KT 9999 VCSH FEW015CB 11/09 Q1002 RESHRA  
EGJB 190720Z 26009G19KT 220V290 8000 SHRA FEW015CB SCT020 11/10 Q1002   
EGJB 190650Z 26010KT 9999 8000W VCSH FEW015CB SCT020 12/10 Q1001
EGJB 190620Z 25013KT 9999 8000E -SHRA FEW015CB SCT022 12/10 Q1001 RESHRA
EGJB 190550Z 25013KT 9999 FEW015CB 12/09 Q1001  
EGJB 190520Z 25016KT 9999 FEW015CB SCT020 12/08 Q1001   
EGJB 190450Z 26014KT 9999 FEW015CB 12/09 Q1001  
EGJB 190420Z 26014KT 9999 FEW015CB 12/09 Q1001  
EGJB 190350Z 25016KT 9999 VCSH FEW015CB SCT018 12/09 Q1001 RESHRA   
EGJB 190320Z 24013KT 9999 VCSH FEW015CB 12/10 Q1001 RESHGS RESHRA   
EGJB 190250Z 23015KT 9999 -SHRA FEW015CB 12/10 Q1000 RESHRA 
EGJB 190150Z 24018KT 9999 FEW015CB 13/09 Q1001  
EGJB 190050Z 24019KT 9999 VCSH FEW015CB SCT020 13/09 Q1001  
EGJB 182350Z 23019KT 9999 VCSH FEW015CB 13/09 Q1001 
EGJB 182250Z 23020KT 9999 FEW018 13/09 Q1001
EGJB 182150Z 23019KT 9999 FEW016 13/09 Q1002
EGJB 182050Z 23017KT 9999 FEW022 13/09 Q1002
EGJB 182020Z 23018KT 9999 FEW022 13/09 Q1002
EGJB 181950Z 23019KT 9999 FEW022 13/09 Q1002
EGJB 181920Z 24018KT 9999 FEW022 13/09 Q1002